createdAt,value
2022-09-05T00:00:13.990Z,97.81
2022-09-05T00:06:02.420Z,98.18
2022-09-05T00:11:42.116Z,98.17
2022-09-05T00:24:17.472Z,99.13
2022-09-05T00:31:51.533Z,98.30
2022-09-05T00:36:57.468Z,98.55
2022-09-05T00:42:04.205Z,97.76
2022-09-05T00:47:25.567Z,97.60
2022-09-05T00:53:05.006Z,98.91
2022-09-05T00:58:40.888Z,98.13
2022-09-05T01:04:37.552Z,98.58
2022-09-05T01:13:08.017Z,100.00
2022-09-05T01:24:18.345Z,100.00
2022-09-05T01:30:17.645Z,100.00
2022-09-05T01:38:11.941Z,99.99
2022-09-05T01:43:40.398Z,100.00
2022-09-05T01:48:59.215Z,100.00
2022-09-05T01:54:37.573Z,100.00
2022-09-05T01:59:55.298Z,100.00
2022-09-05T02:07:19.393Z,100.00
2022-09-05T02:13:03.016Z,100.00
2022-09-05T02:18:12.187Z,100.00
2022-09-05T02:23:41.821Z,100.00
2022-09-05T02:29:29.612Z,100.00
2022-09-05T02:35:00.902Z,100.00
2022-09-05T02:45:09.112Z,100.00
2022-09-05T02:56:36.238Z,100.00
2022-09-05T03:08:55.910Z,100.00
2022-09-05T03:18:21.098Z,100.00
2022-09-05T03:30:29.645Z,100.00
2022-09-05T03:35:48.764Z,100.00
2022-09-05T03:44:10.652Z,100.00
2022-09-05T03:57:21.024Z,100.00
2022-09-05T04:08:09.647Z,100.00
2022-09-05T04:14:06.494Z,100.00
2022-09-05T04:19:52.846Z,100.00
2022-09-05T04:25:26.979Z,100.00
2022-09-05T04:30:46.945Z,100.00
2022-09-05T04:36:20.938Z,100.00
2022-09-05T04:41:37.611Z,100.00
2022-09-05T04:47:08.332Z,100.00
2022-09-05T04:54:09.174Z,100.00
2022-09-05T05:03:05.625Z,100.00
2022-09-05T05:17:54.775Z,100.00
2022-09-05T05:23:28.364Z,100.00
2022-09-05T05:30:07.633Z,97.88
2022-09-05T05:35:12.005Z,97.84
2022-09-05T05:40:30.356Z,97.49
2022-09-05T05:45:33.232Z,95.15
2022-09-05T05:51:05.819Z,96.34
2022-09-05T05:57:52.849Z,94.45
2022-09-05T06:03:29.757Z,91.82
2022-09-05T06:14:51.508Z,90.68
2022-09-05T06:22:11.673Z,89.51
2022-09-05T06:29:34.622Z,90.29
2022-09-05T06:37:45.631Z,83.57
2022-09-05T06:47:05.880Z,87.92
2022-09-05T06:56:09.089Z,88.86
2022-09-05T07:01:13.153Z,86.01
2022-09-05T07:06:50.750Z,79.97
2022-09-05T07:14:49.627Z,78.70
2022-09-05T07:20:00.201Z,80.63
2022-09-05T07:25:06.393Z,80.41
2022-09-05T07:30:13.299Z,80.76
2022-09-05T07:35:42.446Z,80.49
2022-09-05T07:41:21.373Z,80.59
2022-09-05T07:46:26.251Z,80.64
2022-09-05T07:56:49.057Z,78.54
2022-09-05T08:02:12.723Z,79.54
2022-09-05T08:07:46.405Z,76.89
2022-09-05T08:14:44.145Z,78.62
2022-09-05T08:20:09.366Z,73.98
2022-09-05T08:25:58.917Z,72.06
2022-09-05T08:31:42.346Z,69.62
2022-09-05T08:36:56.131Z,68.03
2022-09-05T08:48:06.170Z,65.52
2022-09-05T08:55:09.602Z,64.64
2022-09-05T09:00:20.797Z,62.95
2022-09-05T09:07:47.996Z,61.88
2022-09-05T09:13:27.077Z,60.58
2022-09-05T09:20:12.506Z,59.00
2022-09-05T09:25:22.299Z,57.28
2022-09-05T09:30:30.229Z,54.57
2022-09-05T09:36:07.853Z,54.02
2022-09-05T09:42:44.785Z,56.46
2022-09-05T09:53:57.139Z,53.82
2022-09-05T09:59:26.123Z,52.26
2022-09-05T10:10:39.724Z,51.43
2022-09-05T10:16:52.891Z,49.35
2022-09-05T10:23:55.794Z,47.50
2022-09-05T10:29:36.574Z,45.18
2022-09-05T10:36:21.518Z,45.14
2022-09-05T10:41:42.500Z,45.95
2022-09-05T10:48:23.803Z,44.12
2022-09-05T10:53:53.146Z,44.69
2022-09-05T11:01:17.805Z,44.36
2022-09-05T11:08:30.890Z,44.20
2022-09-05T11:13:49.981Z,42.61
2022-09-05T11:18:57.687Z,36.52
2022-09-05T11:25:39.724Z,34.45
2022-09-05T11:30:45.716Z,35.34
2022-09-05T11:39:51.543Z,36.93
2022-09-05T11:50:44.593Z,38.78
2022-09-05T11:58:45.473Z,38.52
2022-09-05T12:04:21.289Z,36.56
2022-09-05T12:14:54.089Z,33.92
2022-09-05T12:20:29.225Z,33.53
2022-09-05T12:27:36.058Z,32.74
2022-09-05T12:36:04.504Z,33.18
2022-09-05T12:41:46.169Z,33.93
2022-09-05T12:47:23.172Z,32.71
2022-09-05T12:52:36.394Z,32.50
2022-09-05T13:02:57.033Z,31.93
2022-09-05T13:08:20.304Z,31.24
2022-09-05T13:14:59.360Z,31.55
2022-09-05T13:20:18.104Z,31.80
2022-09-05T13:25:26.365Z,32.30
2022-09-05T13:31:13.759Z,30.27
2022-09-05T13:43:08.542Z,30.65
2022-09-05T13:54:50.261Z,31.07
2022-09-05T14:02:28.842Z,31.15
2022-09-05T14:08:08.620Z,30.74
2022-09-05T14:13:27.623Z,30.76
2022-09-05T14:21:14.940Z,31.36
2022-09-05T14:26:28.546Z,31.30
2022-09-05T14:37:34.935Z,29.37
2022-09-05T14:45:15.580Z,29.98
2022-09-05T14:50:36.750Z,29.38
2022-09-05T14:55:39.642Z,29.28
2022-09-05T15:02:58.393Z,29.56
2022-09-05T15:08:26.993Z,29.81
2022-09-05T15:16:26.650Z,30.84
2022-09-05T15:21:38.509Z,31.19
2022-09-05T15:27:40.374Z,30.63
2022-09-05T15:32:43.903Z,30.13
2022-09-05T15:37:49.626Z,31.46
2022-09-05T15:43:01.855Z,31.61
2022-09-05T15:48:20.964Z,32.92
2022-09-05T15:53:28.409Z,31.95
2022-09-05T15:58:53.472Z,31.54
2022-09-05T16:09:16.622Z,31.74
2022-09-05T16:23:13.707Z,32.46
2022-09-05T16:28:42.560Z,33.71
2022-09-05T16:33:46.600Z,33.07
2022-09-05T16:39:14.496Z,32.77
2022-09-05T16:44:51.823Z,33.07
2022-09-05T16:50:34.570Z,32.54
2022-09-05T16:55:45.632Z,32.94
2022-09-05T17:01:19.497Z,32.95
2022-09-05T17:06:54.410Z,33.31
2022-09-05T17:12:00.608Z,33.10
2022-09-05T17:18:07.533Z,33.63
2022-09-05T17:26:29.237Z,34.91
2022-09-05T17:36:20.290Z,35.55
2022-09-05T17:41:53.915Z,36.79
2022-09-05T17:47:17.864Z,37.35
2022-09-05T17:52:22.145Z,37.49
2022-09-05T17:57:34.358Z,37.84
2022-09-05T18:02:55.918Z,38.92
2022-09-05T18:07:57.425Z,39.27
2022-09-05T18:13:32.278Z,39.96
2022-09-05T18:19:03.719Z,40.63
2022-09-05T18:25:28.163Z,41.38
2022-09-05T18:30:33.239Z,41.65
2022-09-05T18:35:38.326Z,43.17
2022-09-05T18:41:01.227Z,45.53
2022-09-05T18:46:13.703Z,46.06
2022-09-05T18:51:17.587Z,46.91
2022-09-05T18:57:12.063Z,47.85
2022-09-05T19:02:58.664Z,49.30
2022-09-05T19:08:06.388Z,50.40
2022-09-05T19:13:23.180Z,51.07
2022-09-05T19:18:33.135Z,50.93
2022-09-05T19:23:42.951Z,51.00
2022-09-05T19:32:59.808Z,52.14
2022-09-05T19:47:29.818Z,53.20
2022-09-05T19:53:06.755Z,54.79
2022-09-05T19:58:20.035Z,55.77
2022-09-05T20:03:22.060Z,56.51
2022-09-05T20:08:34.320Z,57.56
2022-09-05T20:13:35.325Z,57.65
2022-09-05T20:18:39.526Z,57.54
2022-09-05T20:23:48.472Z,56.97
2022-09-05T20:29:00.866Z,57.48
2022-09-05T20:34:50.177Z,57.31
2022-09-05T20:43:37.020Z,58.55
2022-09-05T20:54:17.179Z,58.98
2022-09-05T20:59:41.054Z,60.30
2022-09-05T21:04:54.859Z,60.66
2022-09-05T21:10:01.929Z,61.44
2022-09-05T21:15:07.360Z,62.38
2022-09-05T21:21:10.336Z,62.65
2022-09-05T21:26:30.096Z,61.07
2022-09-05T21:31:32.036Z,61.98
2022-09-05T21:36:34.713Z,63.55
2022-09-05T21:41:36.413Z,64.50
2022-09-05T21:47:48.044Z,63.96
2022-09-05T21:53:01.828Z,64.12
2022-09-05T22:00:10.946Z,64.30
2022-09-05T22:05:19.486Z,63.91
2022-09-05T22:10:21.334Z,64.21
2022-09-05T22:15:28.969Z,63.50
2022-09-05T22:20:30.600Z,64.18
2022-09-05T22:25:34.971Z,64.45
2022-09-05T22:30:35.873Z,65.78
2022-09-05T22:35:38.385Z,66.50
2022-09-05T22:40:40.306Z,66.89
2022-09-05T22:45:41.295Z,67.84
2022-09-05T22:50:42.354Z,69.24
2022-09-05T22:55:43.329Z,70.01
2022-09-05T23:00:44.273Z,69.01
2022-09-05T23:05:45.732Z,69.54
2022-09-05T23:10:46.711Z,70.49
2022-09-05T23:15:47.597Z,70.73
2022-09-05T23:20:48.533Z,70.03
2022-09-05T23:25:49.418Z,69.81
2022-09-05T23:30:50.286Z,69.97
2022-09-05T23:35:51.473Z,70.77
2022-09-05T23:40:59.110Z,70.87
2022-09-05T23:46:01.157Z,71.03
2022-09-05T23:51:10.353Z,71.59
2022-09-05T23:56:11.498Z,70.28
